Terminal Aerodrome Forecast
Issued by NWS Charleston, WV

Current Version | Previous Version | Graphics & Text | Print | Product List | Glossary On
Versions: 1 2 3 4 5 6 7 8 9 10 11 12 13 14 15 16 17 18 19 20 21
000
FTUS41 KRLX 140800 AAA
TAFCRW
TAF AMD
KCRW 140859Z 1409/1506 20004KT 6SM BR VCTS BKN035CB
     FM141600 24007G13KT 6SM +TSRA BR OVC040CB
     FM142300 23006KT P6SM VCTS BKN040CB
     FM150500 23004KT 5SM BR VCTS BKN030CB=

USA.gov is the U.S. government's official web portal to all federal, state and local government web resources and services.